createdAt,value
2023-03-08T00:01:56.328Z,7.35
2023-03-08T00:04:23.162Z,5.47
2023-03-08T00:06:49.805Z,6.07
2023-03-08T00:09:16.369Z,7.10
2023-03-08T00:11:42.977Z,4.30
2023-03-08T00:14:09.628Z,6.65
2023-03-08T00:16:36.152Z,5.22
2023-03-08T00:19:02.719Z,10.60
2023-03-08T00:21:29.283Z,6.50
2023-03-08T00:23:55.888Z,5.38
2023-03-08T00:26:22.516Z,5.82
2023-03-08T00:28:49.140Z,6.25
2023-03-08T00:31:15.880Z,8.38
2023-03-08T00:33:42.589Z,8.48
2023-03-08T00:36:17.351Z,6.30
2023-03-08T00:38:44.141Z,6.95
2023-03-08T00:41:13.631Z,4.75
2023-03-08T00:43:42.386Z,7.80
2023-03-08T00:46:09.390Z,8.27
2023-03-08T00:48:35.952Z,5.13
2023-03-08T00:51:03.940Z,8.35
2023-03-08T00:53:30.593Z,6.53
2023-03-08T00:55:58.933Z,5.43
2023-03-08T00:58:28.067Z,7.13
2023-03-08T01:00:54.963Z,5.57
2023-03-08T01:03:22.895Z,5.70
2023-03-08T01:05:51.829Z,7.20
2023-03-08T01:08:19.149Z,6.72
2023-03-08T01:10:54.086Z,9.82
2023-03-08T01:13:41.030Z,6.65
2023-03-08T01:16:21.574Z,8.13
2023-03-08T01:18:48.162Z,9.52
2023-03-08T01:21:14.896Z,5.95
2023-03-08T01:23:42.703Z,8.48
2023-03-08T01:26:16.086Z,9.13
2023-03-08T01:28:43.134Z,7.20
2023-03-08T01:31:13.214Z,9.18
2023-03-08T01:33:41.431Z,7.95
2023-03-08T01:36:10.289Z,9.40
2023-03-08T01:38:37.151Z,8.13
2023-03-08T01:41:05.892Z,9.13
2023-03-08T01:43:40.793Z,12.13
2023-03-08T01:46:16.204Z,12.02
2023-03-08T01:49:10.747Z,9.50
2023-03-08T01:51:45.213Z,10.05
2023-03-08T01:54:42.297Z,14.07
2023-03-08T01:57:25.130Z,13.30
2023-03-08T01:59:54.054Z,10.80
2023-03-08T02:02:27.196Z,15.13
2023-03-08T02:04:54.926Z,9.50
2023-03-08T02:07:21.488Z,14.63
2023-03-08T02:09:49.624Z,11.07
2023-03-08T02:12:16.185Z,14.57
2023-03-08T02:14:43.643Z,15.88
2023-03-08T02:17:11.196Z,13.23
2023-03-08T02:19:48.779Z,13.32
2023-03-08T02:22:16.421Z,11.75
2023-03-08T02:24:43.370Z,12.35
2023-03-08T02:27:14.533Z,10.07
2023-03-08T02:29:41.095Z,10.07
2023-03-08T02:32:08.156Z,11.90
2023-03-08T02:34:36.534Z,13.32
2023-03-08T02:37:03.143Z,13.40
2023-03-08T02:39:30.081Z,15.40
2023-03-08T02:41:56.895Z,14.70
2023-03-08T02:44:23.449Z,12.95
2023-03-08T02:46:52.708Z,14.65
2023-03-08T02:49:19.583Z,12.95
2023-03-08T02:51:46.121Z,12.98
2023-03-08T02:54:16.792Z,12.65
2023-03-08T02:56:43.505Z,12.43
2023-03-08T02:59:12.785Z,12.13
2023-03-08T03:01:39.472Z,14.85
2023-03-08T03:04:06.172Z,13.77
2023-03-08T03:06:33.955Z,11.95
2023-03-08T03:09:00.849Z,11.23
2023-03-08T03:11:27.736Z,13.57
2023-03-08T03:13:59.215Z,12.80
2023-03-08T03:16:30.950Z,15.55
2023-03-08T03:18:57.515Z,11.32
2023-03-08T03:21:24.538Z,12.38
2023-03-08T03:23:51.347Z,12.68
2023-03-08T03:26:23.128Z,14.02
2023-03-08T03:28:52.924Z,14.40
2023-03-08T03:31:22.082Z,15.70
2023-03-08T03:33:49.908Z,17.38
2023-03-08T03:36:21.175Z,10.95
2023-03-08T03:38:49.127Z,11.25
2023-03-08T03:41:18.401Z,16.77
2023-03-08T03:43:45.791Z,11.60
2023-03-08T03:46:15.602Z,12.00
2023-03-08T03:48:44.216Z,12.00
2023-03-08T03:51:14.040Z,12.18
2023-03-08T03:53:44.678Z,13.85
2023-03-08T03:56:23.400Z,10.85
2023-03-08T03:58:52.220Z,12.02
2023-03-08T04:01:27.227Z,10.88
2023-03-08T04:03:59.862Z,12.35
2023-03-08T04:06:29.437Z,13.15
2023-03-08T04:08:58.896Z,15.32
2023-03-08T04:11:29.305Z,10.60
2023-03-08T04:13:56.206Z,11.50
2023-03-08T04:16:30.043Z,10.07
2023-03-08T04:19:01.733Z,11.32
2023-03-08T04:21:30.626Z,10.60
2023-03-08T04:24:00.119Z,10.40
2023-03-08T04:26:27.765Z,10.40
2023-03-08T04:28:54.342Z,9.75
2023-03-08T04:31:24.499Z,8.88
2023-03-08T04:33:51.580Z,9.90
2023-03-08T04:36:18.863Z,11.13
2023-03-08T04:38:46.117Z,10.45
2023-03-08T04:41:13.300Z,10.25
2023-03-08T04:43:57.331Z,9.98
2023-03-08T04:46:33.019Z,11.68
2023-03-08T04:49:00.265Z,11.27
2023-03-08T04:51:31.257Z,12.15
2023-03-08T04:54:04.446Z,11.32
2023-03-08T04:56:33.205Z,11.38
2023-03-08T04:59:00.283Z,10.88
2023-03-08T05:01:27.863Z,12.02
2023-03-08T05:03:55.186Z,12.25
2023-03-08T05:06:27.902Z,10.80
2023-03-08T05:08:56.619Z,11.48
2023-03-08T05:11:26.777Z,9.50
2023-03-08T05:13:56.227Z,10.50
2023-03-08T05:16:25.938Z,12.73
2023-03-08T05:18:53.202Z,10.70
2023-03-08T05:21:24.648Z,11.85
2023-03-08T05:23:59.191Z,13.45
2023-03-08T05:26:26.722Z,9.30
2023-03-08T05:28:53.297Z,9.77
2023-03-08T05:31:24.109Z,9.50
2023-03-08T05:33:53.811Z,9.68
2023-03-08T05:36:28.323Z,13.50
2023-03-08T05:38:57.155Z,12.30
2023-03-08T05:41:29.994Z,10.43
2023-03-08T05:44:00.975Z,10.57
2023-03-08T05:46:31.659Z,13.32
2023-03-08T05:48:59.787Z,11.70
2023-03-08T05:51:28.629Z,10.85
2023-03-08T05:53:55.220Z,10.23
2023-03-08T05:56:23.100Z,11.48
2023-03-08T05:58:59.086Z,13.50
2023-03-08T06:01:28.580Z,13.43
2023-03-08T06:04:02.057Z,14.77
2023-03-08T06:06:34.614Z,9.70
2023-03-08T06:09:04.325Z,10.88
2023-03-08T06:11:32.589Z,15.73
2023-03-08T06:14:00.394Z,10.98
2023-03-08T06:16:30.492Z,11.20
2023-03-08T06:18:57.875Z,21.02
2023-03-08T06:21:25.540Z,12.13
2023-03-08T06:23:58.631Z,13.40
2023-03-08T06:26:25.262Z,14.15
2023-03-08T06:28:52.334Z,11.95
2023-03-08T06:31:19.718Z,14.65
2023-03-08T06:33:46.795Z,11.38
2023-03-08T06:36:20.925Z,11.75
2023-03-08T06:41:44.130Z,13.80
2023-03-08T06:44:12.802Z,15.60
2023-03-08T06:46:39.402Z,12.02
2023-03-08T06:49:07.840Z,12.63
2023-03-08T06:51:35.867Z,11.15
2023-03-08T06:54:02.658Z,12.02
2023-03-08T06:56:29.890Z,14.10
2023-03-08T06:58:56.630Z,12.75
2023-03-08T07:01:23.260Z,12.07
2023-03-08T07:03:50.268Z,13.45
2023-03-08T07:06:16.821Z,11.45
2023-03-08T07:08:44.142Z,14.30
2023-03-08T07:11:10.717Z,13.98
2023-03-08T07:13:38.063Z,11.15
2023-03-08T07:16:09.504Z,16.10
2023-03-08T07:18:36.111Z,15.27
2023-03-08T07:21:02.740Z,14.23
2023-03-08T07:23:29.378Z,10.98
2023-03-08T07:25:56.335Z,14.85
2023-03-08T07:28:23.535Z,16.17
2023-03-08T07:30:52.318Z,12.77
2023-03-08T07:33:19.695Z,15.60
2023-03-08T07:35:46.739Z,14.10
2023-03-08T07:38:13.485Z,12.85
2023-03-08T07:40:40.336Z,12.73
2023-03-08T07:43:07.242Z,15.25
2023-03-08T07:45:42.694Z,15.48
2023-03-08T07:48:09.445Z,13.40
2023-03-08T07:50:36.036Z,11.38
2023-03-08T07:53:04.443Z,12.82
2023-03-08T07:55:31.051Z,14.93
2023-03-08T07:57:57.696Z,14.50
2023-03-08T08:00:24.667Z,12.82
2023-03-08T08:02:54.126Z,11.48
2023-03-08T08:05:22.176Z,11.60
2023-03-08T08:07:48.933Z,11.30
2023-03-08T08:10:15.683Z,13.02
2023-03-08T08:12:42.219Z,11.85
2023-03-08T08:15:09.312Z,9.95
2023-03-08T08:17:36.418Z,10.00
2023-03-08T08:20:02.978Z,13.60
2023-03-08T08:22:29.612Z,13.65
2023-03-08T08:24:56.253Z,10.50
2023-03-08T08:27:22.881Z,11.75
2023-03-08T08:29:50.922Z,12.90
2023-03-08T08:32:17.599Z,10.60
2023-03-08T08:34:44.157Z,11.18
2023-03-08T08:37:10.797Z,14.10
2023-03-08T08:39:37.344Z,10.43
2023-03-08T08:42:04.059Z,11.32
2023-03-08T08:44:30.666Z,12.63
2023-03-08T08:46:57.321Z,10.50
2023-03-08T08:49:23.898Z,9.85
2023-03-08T08:51:50.471Z,8.32
2023-03-08T08:54:18.023Z,9.40
2023-03-08T08:56:44.596Z,13.77
2023-03-08T08:59:12.881Z,7.47
2023-03-08T09:01:43.776Z,7.68
2023-03-08T09:04:13.466Z,8.43
2023-03-08T09:06:40.495Z,6.95
2023-03-08T09:09:07.284Z,10.25
2023-03-08T09:11:39.750Z,10.07
2023-03-08T09:14:12.151Z,7.50
2023-03-08T09:16:38.832Z,9.45
2023-03-08T09:19:05.622Z,8.75
2023-03-08T09:21:33.466Z,6.72
2023-03-08T09:24:03.001Z,6.95
2023-03-08T09:26:30.945Z,6.30
2023-03-08T09:29:05.114Z,9.32
2023-03-08T09:31:33.541Z,6.97
2023-03-08T09:34:00.346Z,7.63
2023-03-08T09:36:28.824Z,4.32
2023-03-08T09:38:57.534Z,7.65
2023-03-08T09:42:09.834Z,10.88
2023-03-08T09:55:32.136Z,11.88
2023-03-08T09:58:25.178Z,7.30
2023-03-08T10:00:52.713Z,6.07
2023-03-08T10:03:47.898Z,7.10
2023-03-08T10:06:34.693Z,7.18
2023-03-08T10:09:19.825Z,5.78
2023-03-08T10:11:54.821Z,6.38
2023-03-08T10:14:29.256Z,6.45
2023-03-08T10:16:59.657Z,6.93
2023-03-08T10:19:42.356Z,9.65
2023-03-08T10:22:39.211Z,6.10
2023-03-08T10:25:26.518Z,5.88
2023-03-08T10:27:56.060Z,8.77
2023-03-08T10:30:25.446Z,5.70
2023-03-08T10:32:56.586Z,6.80
2023-03-08T10:36:02.468Z,8.30
2023-03-08T10:38:32.918Z,5.85
2023-03-08T10:41:05.623Z,8.32
2023-03-08T10:43:35.184Z,11.27
2023-03-08T10:46:40.953Z,6.30
2023-03-08T10:49:16.795Z,6.45
2023-03-08T10:51:55.584Z,4.10
2023-03-08T10:54:23.204Z,4.95
2023-03-08T10:57:00.603Z,7.57
2023-03-08T10:59:32.709Z,3.72
2023-03-08T11:02:02.679Z,6.50
2023-03-08T11:04:30.665Z,5.05
2023-03-08T11:06:57.569Z,5.57
2023-03-08T11:09:28.031Z,7.75
2023-03-08T11:11:55.877Z,6.43
2023-03-08T11:14:23.140Z,3.65
2023-03-08T11:17:14.734Z,3.90
2023-03-08T11:19:45.062Z,3.97
2023-03-08T11:22:33.585Z,4.07
2023-03-08T11:25:09.267Z,5.72
2023-03-08T11:27:54.056Z,4.55
2023-03-08T11:30:23.698Z,4.50
2023-03-08T11:33:07.061Z,5.13
2023-03-08T11:35:38.404Z,4.50
2023-03-08T11:38:18.404Z,4.38
2023-03-08T11:40:59.430Z,5.82
2023-03-08T11:43:40.737Z,4.57
2023-03-08T11:46:22.296Z,5.22
2023-03-08T11:49:13.040Z,6.25
2023-03-08T11:52:13.839Z,4.30
2023-03-08T11:54:56.517Z,6.18
2023-03-08T11:57:25.895Z,5.68
2023-03-08T12:00:06.860Z,4.38
2023-03-08T12:02:43.908Z,5.70
2023-03-08T12:05:26.417Z,6.60
2023-03-08T12:07:58.165Z,6.05
2023-03-08T12:10:42.711Z,8.23
2023-03-08T12:13:32.468Z,5.25
2023-03-08T12:16:07.174Z,4.32
2023-03-08T12:18:46.941Z,5.32
2023-03-08T12:21:24.281Z,6.75
2023-03-08T12:24:01.649Z,6.57
2023-03-08T12:26:41.894Z,5.10
2023-03-08T12:29:20.340Z,11.07
2023-03-08T12:31:49.012Z,3.78
2023-03-08T12:34:27.987Z,5.60
2023-03-08T12:36:54.823Z,8.40
2023-03-08T12:39:35.981Z,6.47
2023-03-08T12:42:08.471Z,4.30
2023-03-08T12:44:35.089Z,6.25
2023-03-08T12:47:13.825Z,7.63
2023-03-08T12:49:42.813Z,7.03
2023-03-08T12:52:18.467Z,5.70
2023-03-08T12:55:09.060Z,5.68
2023-03-08T12:57:43.038Z,4.88
2023-03-08T13:00:28.711Z,8.10
2023-03-08T13:03:06.339Z,6.13
2023-03-08T13:05:35.633Z,7.13
2023-03-08T13:08:14.318Z,7.68
2023-03-08T13:10:52.909Z,5.28
2023-03-08T13:13:38.192Z,8.13
2023-03-08T13:16:08.273Z,6.97
2023-03-08T13:18:36.943Z,5.32
2023-03-08T13:21:28.605Z,5.38
2023-03-08T13:24:00.334Z,5.68
2023-03-08T13:26:50.492Z,7.47
2023-03-08T13:29:19.476Z,6.15
2023-03-08T13:31:47.858Z,6.75
2023-03-08T13:34:24.535Z,6.03
2023-03-08T13:36:51.168Z,7.80
2023-03-08T13:39:20.887Z,6.85
2023-03-08T13:41:48.657Z,8.43
2023-03-08T13:44:16.638Z,9.60
2023-03-08T13:46:44.044Z,8.52
2023-03-08T13:49:15.041Z,7.32
2023-03-08T13:51:43.132Z,7.93
2023-03-08T13:54:20.061Z,7.93
2023-03-08T13:56:53.136Z,7.97
2023-03-08T13:59:20.755Z,7.95
2023-03-08T14:01:49.610Z,9.48
2023-03-08T14:04:22.054Z,9.00
2023-03-08T14:06:50.715Z,10.15
2023-03-08T14:09:18.463Z,9.35
2023-03-08T14:11:45.480Z,10.27
2023-03-08T14:14:19.712Z,10.98
2023-03-08T14:16:46.894Z,10.02
2023-03-08T14:19:26.535Z,8.82
2023-03-08T14:21:58.475Z,9.93
2023-03-08T14:24:30.922Z,11.65
2023-03-08T14:27:05.617Z,9.40
2023-03-08T14:29:34.581Z,9.40
2023-03-08T14:32:05.406Z,11.35
2023-03-08T14:34:39.558Z,11.25
2023-03-08T14:37:14.284Z,11.63
2023-03-08T14:39:46.216Z,12.48
2023-03-08T14:42:21.288Z,13.07
2023-03-08T14:44:55.493Z,12.52
2023-03-08T14:47:24.984Z,10.45
2023-03-08T14:50:02.772Z,8.13
2023-03-08T14:52:31.259Z,10.18
2023-03-08T14:54:57.857Z,9.52
2023-03-08T14:57:28.827Z,11.45
2023-03-08T15:00:22.576Z,9.52
2023-03-08T15:02:49.477Z,10.43
2023-03-08T15:05:28.348Z,11.98
2023-03-08T15:07:56.278Z,12.05
2023-03-08T15:10:31.606Z,11.40
2023-03-08T15:12:58.506Z,10.95
2023-03-08T15:15:25.271Z,13.32
2023-03-08T15:17:52.485Z,14.57
2023-03-08T15:20:19.530Z,12.40
2023-03-08T15:22:52.146Z,9.88
2023-03-08T15:25:23.164Z,11.00
2023-03-08T15:27:50.019Z,11.40
2023-03-08T15:30:28.156Z,11.52
2023-03-08T15:32:57.327Z,10.48
2023-03-08T15:35:25.145Z,10.45
2023-03-08T15:37:51.732Z,12.02
2023-03-08T15:40:30.542Z,11.57
2023-03-08T15:42:58.102Z,11.15
2023-03-08T15:45:25.091Z,11.00
2023-03-08T15:47:58.553Z,11.02
2023-03-08T15:50:25.262Z,9.52
2023-03-08T15:52:52.644Z,9.88
2023-03-08T15:55:19.229Z,10.32
2023-03-08T15:57:45.782Z,11.32
2023-03-08T16:00:14.709Z,10.75
2023-03-08T16:02:41.389Z,12.07
2023-03-08T16:05:09.774Z,13.00
2023-03-08T16:07:36.698Z,11.00
2023-03-08T16:10:04.165Z,10.05
2023-03-08T16:12:30.972Z,11.50
2023-03-08T16:14:58.258Z,12.93
2023-03-08T16:17:28.162Z,11.65
2023-03-08T16:19:54.772Z,13.73
2023-03-08T16:22:21.353Z,13.05
2023-03-08T16:24:47.932Z,13.18
2023-03-08T16:27:15.269Z,15.38
2023-03-08T16:29:42.129Z,14.70
2023-03-08T16:32:10.886Z,12.98
2023-03-08T16:34:38.001Z,13.15
2023-03-08T16:37:05.639Z,13.55
2023-03-08T16:39:32.260Z,12.25
2023-03-08T16:41:58.835Z,12.63
2023-03-08T16:44:29.909Z,12.15
2023-03-08T16:46:56.697Z,14.52
2023-03-08T16:49:28.228Z,15.45
2023-03-08T16:51:55.814Z,12.10
2023-03-08T16:54:22.652Z,11.85
2023-03-08T16:56:49.538Z,13.02
2023-03-08T16:59:16.614Z,17.17
2023-03-08T17:01:44.140Z,14.73
2023-03-08T17:04:11.553Z,15.38
2023-03-08T17:06:38.807Z,15.30
2023-03-08T17:09:06.382Z,15.35
2023-03-08T17:11:34.534Z,15.38
2023-03-08T17:14:07.694Z,16.50
2023-03-08T17:16:35.616Z,15.15
2023-03-08T17:19:04.571Z,16.30
2023-03-08T17:21:32.015Z,16.70
2023-03-08T17:23:59.336Z,15.43
2023-03-08T17:26:25.944Z,16.42
2023-03-08T17:28:53.623Z,16.40
2023-03-08T17:31:23.037Z,16.88
2023-03-08T17:33:49.672Z,14.32
2023-03-08T17:36:16.460Z,17.02
2023-03-08T17:38:43.128Z,15.50
2023-03-08T17:41:12.136Z,23.98
2023-03-08T17:43:41.151Z,20.10
2023-03-08T17:46:17.539Z,20.58
2023-03-08T17:48:44.269Z,16.52
2023-03-08T17:51:13.337Z,13.05
2023-03-08T17:53:40.412Z,16.98
2023-03-08T17:56:08.794Z,14.68
2023-03-08T17:58:35.750Z,15.32
2023-03-08T18:01:12.415Z,14.50
2023-03-08T18:03:38.993Z,14.70
2023-03-08T18:06:06.005Z,15.60
2023-03-08T18:08:36.176Z,21.55
2023-03-08T18:11:03.501Z,14.05
2023-03-08T18:13:30.162Z,12.45
2023-03-08T18:15:56.854Z,13.10
2023-03-08T18:18:23.586Z,12.50
2023-03-08T18:20:50.153Z,12.15
2023-03-08T18:23:16.858Z,24.63
2023-03-08T18:25:43.515Z,22.20
2023-03-08T18:28:10.116Z,14.27
2023-03-08T18:30:38.764Z,14.25
2023-03-08T18:33:05.381Z,13.48
2023-03-08T18:35:32.237Z,15.88
2023-03-08T18:37:58.868Z,13.90
2023-03-08T18:40:28.535Z,16.58
2023-03-08T18:42:55.550Z,11.70
2023-03-08T18:45:22.767Z,13.90
2023-03-08T18:47:50.960Z,13.77
2023-03-08T18:50:18.533Z,13.70
2023-03-08T18:52:45.382Z,11.50
2023-03-08T18:55:13.364Z,11.88
2023-03-08T18:57:42.031Z,13.10
2023-03-08T19:00:10.834Z,13.05
2023-03-08T19:02:37.705Z,12.65
2023-03-08T19:05:04.356Z,15.13
2023-03-08T19:07:31.111Z,13.40
2023-03-08T19:09:58.901Z,13.15
2023-03-08T19:12:25.497Z,14.63
2023-03-08T19:14:53.021Z,13.07
2023-03-08T19:17:19.644Z,17.27
2023-03-08T19:19:46.236Z,15.38
2023-03-08T19:22:12.868Z,15.02
2023-03-08T19:24:39.435Z,20.08
2023-03-08T19:27:06.551Z,17.63
2023-03-08T19:29:33.354Z,16.35
2023-03-08T19:32:03.075Z,14.40
2023-03-08T19:34:41.481Z,14.60
2023-03-08T19:37:09.341Z,12.07
2023-03-08T19:39:37.268Z,11.45
2023-03-08T19:42:09.033Z,21.38
2023-03-08T19:44:35.728Z,11.98
2023-03-08T19:47:04.650Z,10.70
2023-03-08T19:49:33.803Z,10.52
2023-03-08T19:52:02.623Z,11.25
2023-03-08T19:54:29.745Z,11.40
2023-03-08T19:56:57.288Z,10.52
2023-03-08T19:59:24.654Z,12.88
2023-03-08T20:01:53.800Z,12.70
2023-03-08T20:04:20.970Z,15.00
2023-03-08T20:06:48.925Z,13.13
2023-03-08T20:09:24.134Z,13.15
2023-03-08T20:11:56.455Z,24.00
2023-03-08T20:14:27.222Z,15.68
2023-03-08T20:16:54.469Z,15.50
2023-03-08T20:19:21.248Z,15.13
2023-03-08T20:21:47.786Z,13.13
2023-03-08T20:24:14.567Z,10.75
2023-03-08T20:26:42.142Z,11.48
2023-03-08T20:29:09.119Z,10.25
2023-03-08T20:31:35.688Z,12.57
2023-03-08T20:34:02.469Z,13.63
2023-03-08T20:36:29.710Z,12.85
2023-03-08T20:38:59.255Z,11.75
2023-03-08T20:41:26.514Z,11.95
2023-03-08T20:43:55.611Z,9.55
2023-03-08T20:46:24.609Z,9.90
2023-03-08T20:48:52.319Z,10.40
2023-03-08T20:51:20.344Z,9.88
2023-03-08T20:53:54.183Z,11.82
2023-03-08T20:56:21.782Z,10.50
2023-03-08T20:58:48.356Z,11.57
2023-03-08T21:01:17.887Z,11.23
2023-03-08T21:03:44.964Z,12.18
2023-03-08T21:06:22.930Z,11.90
2023-03-08T21:08:49.912Z,13.10
2023-03-08T21:11:17.475Z,13.52
2023-03-08T21:13:46.070Z,12.68
2023-03-08T21:16:15.686Z,15.18
2023-03-08T21:18:45.819Z,16.73
2023-03-08T21:21:24.703Z,40.33
2023-03-08T21:23:54.142Z,16.58
2023-03-08T21:26:23.755Z,16.90
2023-03-08T21:28:50.309Z,16.20
2023-03-08T21:31:17.500Z,15.38
2023-03-08T21:33:44.113Z,15.85
2023-03-08T21:36:11.218Z,15.77
2023-03-08T21:38:37.807Z,14.73
2023-03-08T21:41:04.557Z,17.85
2023-03-08T21:43:31.122Z,18.58
2023-03-08T21:45:57.681Z,16.35
2023-03-08T21:48:24.246Z,15.63
2023-03-08T21:50:50.852Z,15.07
2023-03-08T21:53:17.503Z,19.00
2023-03-08T21:55:44.047Z,16.17
2023-03-08T21:58:10.600Z,15.77
2023-03-08T22:00:37.227Z,16.30
2023-03-08T22:03:04.020Z,18.77
2023-03-08T22:05:30.771Z,15.30
2023-03-08T22:07:57.379Z,15.00
2023-03-08T22:10:23.965Z,15.52
2023-03-08T22:12:50.565Z,14.90
2023-03-08T22:15:17.181Z,17.92
2023-03-08T22:17:43.814Z,19.88
2023-03-08T22:20:11.173Z,17.73
2023-03-08T22:22:38.694Z,17.45
2023-03-08T22:25:06.305Z,17.63
2023-03-08T22:27:33.123Z,16.88
2023-03-08T22:29:59.867Z,17.33
2023-03-08T22:32:26.585Z,18.67
2023-03-08T22:34:53.153Z,20.75
2023-03-08T22:37:19.881Z,19.92
2023-03-08T22:39:46.439Z,21.73
2023-03-08T22:42:13.501Z,18.27
2023-03-08T22:44:41.174Z,20.20
2023-03-08T22:47:07.744Z,19.20
2023-03-08T22:49:34.481Z,20.42
2023-03-08T22:52:01.117Z,20.13
2023-03-08T22:54:27.692Z,18.88
2023-03-08T22:56:54.932Z,17.48
2023-03-08T22:59:21.517Z,19.23
2023-03-08T23:01:48.247Z,16.50
2023-03-08T23:04:14.929Z,19.65
2023-03-08T23:06:41.522Z,17.10
2023-03-08T23:09:10.288Z,16.02
2023-03-08T23:11:38.156Z,16.05
2023-03-08T23:14:05.985Z,16.00
2023-03-08T23:16:33.504Z,17.75
2023-03-08T23:19:00.122Z,16.67
2023-03-08T23:21:29.865Z,15.57
2023-03-08T23:23:57.672Z,17.52
2023-03-08T23:26:26.950Z,17.98
2023-03-08T23:28:54.739Z,16.98
2023-03-08T23:31:24.377Z,16.23
2023-03-08T23:33:51.554Z,15.98
2023-03-08T23:36:20.341Z,17.15
2023-03-08T23:38:47.264Z,18.92
2023-03-08T23:41:14.210Z,16.58
2023-03-08T23:43:41.615Z,16.13
2023-03-08T23:46:16.975Z,16.38
2023-03-08T23:48:44.429Z,16.02
2023-03-08T23:51:14.106Z,18.90
2023-03-08T23:53:40.661Z,16.77
2023-03-08T23:56:16.557Z,16.15
2023-03-08T23:58:43.147Z,20.80
